sensor_id;sensor_type;location;lat;lon;timestamp;temperature;humidity
15949;DHT22;14848;50.954;6.642;2023-05-10T00:00:39;13.00;99.90
15949;DHT22;14848;50.954;6.642;2023-05-10T00:03:05;13.00;99.90
15949;DHT22;14848;50.954;6.642;2023-05-10T00:05:31;12.90;99.90
15949;DHT22;14848;50.954;6.642;2023-05-10T00:07:57;13.00;99.90
15949;DHT22;14848;50.954;6.642;2023-05-10T00:10:23;13.00;99.90
15949;DHT22;14848;50.954;6.642;2023-05-10T00:12:48;13.00;99.90
15949;DHT22;14848;50.954;6.642;2023-05-10T00:15:14;13.00;99.90
15949;DHT22;14848;50.954;6.642;2023-05-10T00:17:40;13.00;99.90
15949;DHT22;14848;50.954;6.642;2023-05-10T00:20:06;13.00;99.90
15949;DHT22;14848;50.954;6.642;2023-05-10T00:22:32;13.10;99.90
15949;DHT22;14848;50.954;6.642;2023-05-10T00:24:58;13.00;99.90
15949;DHT22;14848;50.954;6.642;2023-05-10T00:27:24;13.00;99.90
15949;DHT22;14848;50.954;6.642;2023-05-10T00:29:50;13.00;99.90
15949;DHT22;14848;50.954;6.642;2023-05-10T00:32:15;13.00;99.90
15949;DHT22;14848;50.954;6.642;2023-05-10T00:34:41;13.00;99.90
15949;DHT22;14848;50.954;6.642;2023-05-10T00:37:07;13.00;99.90
15949;DHT22;14848;50.954;6.642;2023-05-10T00:39:33;13.00;99.90
15949;DHT22;14848;50.954;6.642;2023-05-10T00:41:58;13.00;99.90
15949;DHT22;14848;50.954;6.642;2023-05-10T00:44:25;13.00;99.90
15949;DHT22;14848;50.954;6.642;2023-05-10T00:46:51;13.00;99.90
15949;DHT22;14848;50.954;6.642;2023-05-10T00:49:16;13.00;99.90
15949;DHT22;14848;50.954;6.642;2023-05-10T00:51:43;13.00;99.90
15949;DHT22;14848;50.954;6.642;2023-05-10T00:54:14;13.00;99.90
15949;DHT22;14848;50.954;6.642;2023-05-10T00:56:41;12.90;99.90
15949;DHT22;14848;50.954;6.642;2023-05-10T00:59:08;12.90;99.90
15949;DHT22;14848;50.954;6.642;2023-05-10T01:01:35;12.90;99.90
15949;DHT22;14848;50.954;6.642;2023-05-10T01:04:01;12.80;99.90
15949;DHT22;14848;50.954;6.642;2023-05-10T01:06:28;12.80;99.90
15949;DHT22;14848;50.954;6.642;2023-05-10T01:08:54;12.80;99.90
15949;DHT22;14848;50.954;6.642;2023-05-10T01:11:20;12.80;99.90
15949;DHT22;14848;50.954;6.642;2023-05-10T01:13:50;12.80;99.90
15949;DHT22;14848;50.954;6.642;2023-05-10T01:16:18;12.80;99.90
15949;DHT22;14848;50.954;6.642;2023-05-10T01:18:44;12.80;99.90
15949;DHT22;14848;50.954;6.642;2023-05-10T01:21:33;12.80;99.90
15949;DHT22;14848;50.954;6.642;2023-05-10T01:24:09;12.80;99.90
15949;DHT22;14848;50.954;6.642;2023-05-10T01:34:42;12.80;99.90
15949;DHT22;14848;50.954;6.642;2023-05-10T01:37:15;12.80;99.90
15949;DHT22;14848;50.954;6.642;2023-05-10T01:39:57;12.80;99.90
15949;DHT22;14848;50.954;6.642;2023-05-10T01:42:29;12.80;99.90
15949;DHT22;14848;50.954;6.642;2023-05-10T01:47:42;12.80;99.90
15949;DHT22;14848;50.954;6.642;2023-05-10T01:50:15;12.80;99.90
15949;DHT22;14848;50.954;6.642;2023-05-10T01:52:50;12.90;99.90
15949;DHT22;14848;50.954;6.642;2023-05-10T01:55:19;12.80;99.90
15949;DHT22;14848;50.954;6.642;2023-05-10T01:57:48;12.80;99.90
15949;DHT22;14848;50.954;6.642;2023-05-10T02:00:16;12.80;99.90
15949;DHT22;14848;50.954;6.642;2023-05-10T02:02:48;12.90;99.90
15949;DHT22;14848;50.954;6.642;2023-05-10T02:05:16;12.80;99.90
15949;DHT22;14848;50.954;6.642;2023-05-10T02:07:43;12.80;99.90
15949;DHT22;14848;50.954;6.642;2023-05-10T02:10:10;12.80;99.90
15949;DHT22;14848;50.954;6.642;2023-05-10T02:12:37;12.90;99.90
15949;DHT22;14848;50.954;6.642;2023-05-10T02:15:05;12.90;99.90
15949;DHT22;14848;50.954;6.642;2023-05-10T02:17:33;12.90;99.90
15949;DHT22;14848;50.954;6.642;2023-05-10T02:20:01;12.90;99.90
15949;DHT22;14848;50.954;6.642;2023-05-10T02:22:28;12.90;99.90
15949;DHT22;14848;50.954;6.642;2023-05-10T02:24:58;12.90;99.90
15949;DHT22;14848;50.954;6.642;2023-05-10T02:27:25;12.90;99.90
15949;DHT22;14848;50.954;6.642;2023-05-10T02:29:53;12.80;99.90
15949;DHT22;14848;50.954;6.642;2023-05-10T02:32:21;12.80;99.90
15949;DHT22;14848;50.954;6.642;2023-05-10T02:34:49;12.80;99.90
15949;DHT22;14848;50.954;6.642;2023-05-10T02:37:19;12.80;99.90
15949;DHT22;14848;50.954;6.642;2023-05-10T02:39:50;12.80;99.90
15949;DHT22;14848;50.954;6.642;2023-05-10T02:42:18;12.80;99.90
15949;DHT22;14848;50.954;6.642;2023-05-10T02:44:47;12.80;99.90
15949;DHT22;14848;50.954;6.642;2023-05-10T02:47:13;12.80;99.90
15949;DHT22;14848;50.954;6.642;2023-05-10T02:49:39;12.80;99.90
15949;DHT22;14848;50.954;6.642;2023-05-10T02:52:06;12.70;99.90
15949;DHT22;14848;50.954;6.642;2023-05-10T02:54:34;12.80;99.90
15949;DHT22;14848;50.954;6.642;2023-05-10T02:57:04;12.80;99.90
15949;DHT22;14848;50.954;6.642;2023-05-10T02:59:31;12.70;99.90
15949;DHT22;14848;50.954;6.642;2023-05-10T03:01:59;12.70;99.90
15949;DHT22;14848;50.954;6.642;2023-05-10T03:04:25;12.70;99.90
15949;DHT22;14848;50.954;6.642;2023-05-10T03:06:51;12.70;99.90
15949;DHT22;14848;50.954;6.642;2023-05-10T03:09:18;12.60;99.90
15949;DHT22;14848;50.954;6.642;2023-05-10T03:14:57;12.70;99.90
15949;DHT22;14848;50.954;6.642;2023-05-10T03:20:10;12.70;99.90
15949;DHT22;14848;50.954;6.642;2023-05-10T03:22:49;12.70;99.90
15949;DHT22;14848;50.954;6.642;2023-05-10T03:25:16;12.70;99.90
15949;DHT22;14848;50.954;6.642;2023-05-10T03:27:44;12.70;99.90
15949;DHT22;14848;50.954;6.642;2023-05-10T03:30:12;12.70;99.90
15949;DHT22;14848;50.954;6.642;2023-05-10T03:32:38;12.70;99.90
15949;DHT22;14848;50.954;6.642;2023-05-10T03:35:11;12.70;99.90
15949;DHT22;14848;50.954;6.642;2023-05-10T03:37:37;12.70;99.90
15949;DHT22;14848;50.954;6.642;2023-05-10T03:40:04;12.70;99.90
15949;DHT22;14848;50.954;6.642;2023-05-10T03:42:30;12.80;99.90
15949;DHT22;14848;50.954;6.642;2023-05-10T03:44:55;12.80;99.90
15949;DHT22;14848;50.954;6.642;2023-05-10T03:47:21;12.90;99.90
15949;DHT22;14848;50.954;6.642;2023-05-10T03:49:47;12.80;99.90
15949;DHT22;14848;50.954;6.642;2023-05-10T03:52:12;12.80;99.90
15949;DHT22;14848;50.954;6.642;2023-05-10T03:54:38;12.80;99.90
15949;DHT22;14848;50.954;6.642;2023-05-10T03:57:04;12.80;99.90
15949;DHT22;14848;50.954;6.642;2023-05-10T03:59:30;12.70;99.90
15949;DHT22;14848;50.954;6.642;2023-05-10T04:01:55;12.80;99.90
15949;DHT22;14848;50.954;6.642;2023-05-10T04:04:21;12.80;99.90
15949;DHT22;14848;50.954;6.642;2023-05-10T04:06:48;12.80;99.90
15949;DHT22;14848;50.954;6.642;2023-05-10T04:09:14;12.80;99.90
15949;DHT22;14848;50.954;6.642;2023-05-10T04:11:40;12.70;99.90
15949;DHT22;14848;50.954;6.642;2023-05-10T04:14:06;12.70;99.90
15949;DHT22;14848;50.954;6.642;2023-05-10T04:16:31;12.70;99.90
15949;DHT22;14848;50.954;6.642;2023-05-10T04:18:57;12.70;99.90
15949;DHT22;14848;50.954;6.642;2023-05-10T04:21:23;12.70;99.90
15949;DHT22;14848;50.954;6.642;2023-05-10T04:23:48;12.70;99.90
15949;DHT22;14848;50.954;6.642;2023-05-10T04:26:14;12.70;99.90
15949;DHT22;14848;50.954;6.642;2023-05-10T04:28:40;12.70;99.90
15949;DHT22;14848;50.954;6.642;2023-05-10T04:31:07;12.70;99.90
15949;DHT22;14848;50.954;6.642;2023-05-10T04:33:33;12.70;99.90
15949;DHT22;14848;50.954;6.642;2023-05-10T04:36:00;12.70;99.90
15949;DHT22;14848;50.954;6.642;2023-05-10T04:38:26;12.80;99.90
15949;DHT22;14848;50.954;6.642;2023-05-10T04:40:52;12.80;99.90
15949;DHT22;14848;50.954;6.642;2023-05-10T04:43:18;12.80;99.90
15949;DHT22;14848;50.954;6.642;2023-05-10T04:45:44;12.80;99.90
15949;DHT22;14848;50.954;6.642;2023-05-10T04:48:09;12.80;99.90
15949;DHT22;14848;50.954;6.642;2023-05-10T04:50:35;12.80;99.90
15949;DHT22;14848;50.954;6.642;2023-05-10T04:53:01;12.90;99.90
15949;DHT22;14848;50.954;6.642;2023-05-10T04:55:27;12.90;99.90
15949;DHT22;14848;50.954;6.642;2023-05-10T04:57:53;12.90;99.90
15949;DHT22;14848;50.954;6.642;2023-05-10T05:00:22;12.90;99.90
15949;DHT22;14848;50.954;6.642;2023-05-10T05:02:47;13.00;99.90
15949;DHT22;14848;50.954;6.642;2023-05-10T05:05:13;13.00;99.90
15949;DHT22;14848;50.954;6.642;2023-05-10T05:07:39;13.00;99.90
15949;DHT22;14848;50.954;6.642;2023-05-10T05:10:06;13.00;99.90
15949;DHT22;14848;50.954;6.642;2023-05-10T05:12:32;13.00;99.90
15949;DHT22;14848;50.954;6.642;2023-05-10T05:14:58;13.00;99.90
15949;DHT22;14848;50.954;6.642;2023-05-10T05:17:23;13.00;99.90
15949;DHT22;14848;50.954;6.642;2023-05-10T05:19:49;13.00;99.90
15949;DHT22;14848;50.954;6.642;2023-05-10T05:22:15;13.00;99.90
15949;DHT22;14848;50.954;6.642;2023-05-10T05:24:41;13.00;99.90
15949;DHT22;14848;50.954;6.642;2023-05-10T05:27:06;12.90;99.90
15949;DHT22;14848;50.954;6.642;2023-05-10T05:29:32;13.00;99.90
15949;DHT22;14848;50.954;6.642;2023-05-10T05:31:58;13.00;99.90
15949;DHT22;14848;50.954;6.642;2023-05-10T05:34:24;13.00;99.90
15949;DHT22;14848;50.954;6.642;2023-05-10T05:36:51;13.00;99.90
15949;DHT22;14848;50.954;6.642;2023-05-10T05:39:17;13.10;99.90
15949;DHT22;14848;50.954;6.642;2023-05-10T05:41:42;13.10;99.90
15949;DHT22;14848;50.954;6.642;2023-05-10T05:44:08;13.10;99.90
15949;DHT22;14848;50.954;6.642;2023-05-10T05:46:34;13.10;99.90
15949;DHT22;14848;50.954;6.642;2023-05-10T05:49:00;13.60;99.90
15949;DHT22;14848;50.954;6.642;2023-05-10T05:51:25;13.10;99.90
15949;DHT22;14848;50.954;6.642;2023-05-10T05:53:51;13.10;99.90
15949;DHT22;14848;50.954;6.642;2023-05-10T05:56:17;13.20;99.90
15949;DHT22;14848;50.954;6.642;2023-05-10T05:58:49;13.20;99.90
15949;DHT22;14848;50.954;6.642;2023-05-10T06:01:15;13.20;99.90
15949;DHT22;14848;50.954;6.642;2023-05-10T06:03:41;13.20;99.90
15949;DHT22;14848;50.954;6.642;2023-05-10T06:06:07;13.10;99.90
15949;DHT22;14848;50.954;6.642;2023-05-10T06:08:33;13.10;99.90
15949;DHT22;14848;50.954;6.642;2023-05-10T06:10:59;13.10;99.90
15949;DHT22;14848;50.954;6.642;2023-05-10T06:13:25;13.10;99.90
15949;DHT22;14848;50.954;6.642;2023-05-10T06:16:00;13.10;99.90
15949;DHT22;14848;50.954;6.642;2023-05-10T06:18:26;13.10;99.90
15949;DHT22;14848;50.954;6.642;2023-05-10T06:20:52;13.10;99.90
15949;DHT22;14848;50.954;6.642;2023-05-10T06:23:17;13.10;99.90
15949;DHT22;14848;50.954;6.642;2023-05-10T06:25:43;13.10;99.90
15949;DHT22;14848;50.954;6.642;2023-05-10T06:28:09;13.20;99.90
15949;DHT22;14848;50.954;6.642;2023-05-10T06:30:36;13.20;99.90
15949;DHT22;14848;50.954;6.642;2023-05-10T06:33:02;13.20;99.90
15949;DHT22;14848;50.954;6.642;2023-05-10T06:35:28;13.20;99.90
15949;DHT22;14848;50.954;6.642;2023-05-10T06:37:54;13.30;99.90
15949;DHT22;14848;50.954;6.642;2023-05-10T06:40:20;13.20;99.90
15949;DHT22;14848;50.954;6.642;2023-05-10T06:42:47;13.20;99.90
15949;DHT22;14848;50.954;6.642;2023-05-10T06:45:13;13.20;99.90
15949;DHT22;14848;50.954;6.642;2023-05-10T06:47:40;13.20;99.90
15949;DHT22;14848;50.954;6.642;2023-05-10T06:50:09;13.20;99.90
15949;DHT22;14848;50.954;6.642;2023-05-10T06:52:35;13.30;99.90
15949;DHT22;14848;50.954;6.642;2023-05-10T06:55:01;13.30;99.90
15949;DHT22;14848;50.954;6.642;2023-05-10T06:57:27;13.30;99.90
15949;DHT22;14848;50.954;6.642;2023-05-10T06:59:52;13.30;99.90
15949;DHT22;14848;50.954;6.642;2023-05-10T07:02:18;13.30;99.90
15949;DHT22;14848;50.954;6.642;2023-05-10T07:04:44;13.40;99.90
15949;DHT22;14848;50.954;6.642;2023-05-10T07:07:09;13.30;99.90
15949;DHT22;14848;50.954;6.642;2023-05-10T07:09:35;13.30;99.90
15949;DHT22;14848;50.954;6.642;2023-05-10T07:12:01;13.40;99.90
15949;DHT22;14848;50.954;6.642;2023-05-10T07:14:27;13.30;99.90
15949;DHT22;14848;50.954;6.642;2023-05-10T07:16:53;13.30;99.90
15949;DHT22;14848;50.954;6.642;2023-05-10T07:19:18;13.30;99.90
15949;DHT22;14848;50.954;6.642;2023-05-10T07:21:45;13.30;99.90
15949;DHT22;14848;50.954;6.642;2023-05-10T07:24:10;13.40;99.90
15949;DHT22;14848;50.954;6.642;2023-05-10T07:26:36;13.40;99.90
15949;DHT22;14848;50.954;6.642;2023-05-10T07:29:02;13.40;99.90
15949;DHT22;14848;50.954;6.642;2023-05-10T07:31:28;14.00;99.90
15949;DHT22;14848;50.954;6.642;2023-05-10T07:33:53;13.50;99.90
15949;DHT22;14848;50.954;6.642;2023-05-10T07:36:19;13.40;99.90
15949;DHT22;14848;50.954;6.642;2023-05-10T07:38:45;13.50;99.90
15949;DHT22;14848;50.954;6.642;2023-05-10T07:41:12;13.50;99.90
15949;DHT22;14848;50.954;6.642;2023-05-10T07:43:37;13.40;99.90
15949;DHT22;14848;50.954;6.642;2023-05-10T07:46:04;13.50;99.90
15949;DHT22;14848;50.954;6.642;2023-05-10T07:48:30;13.50;99.90
15949;DHT22;14848;50.954;6.642;2023-05-10T07:50:56;13.50;99.90
15949;DHT22;14848;50.954;6.642;2023-05-10T07:53:22;15.70;99.90
15949;DHT22;14848;50.954;6.642;2023-05-10T07:55:52;13.50;99.90
15949;DHT22;14848;50.954;6.642;2023-05-10T07:58:19;13.60;99.90
15949;DHT22;14848;50.954;6.642;2023-05-10T08:00:45;13.60;99.90
15949;DHT22;14848;50.954;6.642;2023-05-10T08:03:11;13.70;99.90
15949;DHT22;14848;50.954;6.642;2023-05-10T08:05:37;13.70;99.90
15949;DHT22;14848;50.954;6.642;2023-05-10T08:08:02;13.60;99.90
15949;DHT22;14848;50.954;6.642;2023-05-10T08:10:28;13.60;99.90
15949;DHT22;14848;50.954;6.642;2023-05-10T08:12:54;13.60;99.90
15949;DHT22;14848;50.954;6.642;2023-05-10T08:15:19;13.60;99.90
15949;DHT22;14848;50.954;6.642;2023-05-10T08:17:45;13.70;99.90
15949;DHT22;14848;50.954;6.642;2023-05-10T08:20:11;13.80;99.90
15949;DHT22;14848;50.954;6.642;2023-05-10T08:22:38;13.80;99.90
15949;DHT22;14848;50.954;6.642;2023-05-10T08:25:04;13.90;99.90
15949;DHT22;14848;50.954;6.642;2023-05-10T08:27:30;13.60;99.90
15949;DHT22;14848;50.954;6.642;2023-05-10T08:29:56;14.10;99.90
15949;DHT22;14848;50.954;6.642;2023-05-10T08:32:21;14.20;99.90
15949;DHT22;14848;50.954;6.642;2023-05-10T08:34:47;14.30;99.90
15949;DHT22;14848;50.954;6.642;2023-05-10T08:37:12;14.50;99.90
15949;DHT22;14848;50.954;6.642;2023-05-10T08:39:38;14.40;99.90
15949;DHT22;14848;50.954;6.642;2023-05-10T08:42:05;14.50;99.90
15949;DHT22;14848;50.954;6.642;2023-05-10T08:44:35;14.50;99.90
15949;DHT22;14848;50.954;6.642;2023-05-10T08:47:06;14.60;99.90
15949;DHT22;14848;50.954;6.642;2023-05-10T08:49:32;14.50;99.90
15949;DHT22;14848;50.954;6.642;2023-05-10T08:52:02;14.50;99.90
15949;DHT22;14848;50.954;6.642;2023-05-10T08:54:31;14.30;99.90
15949;DHT22;14848;50.954;6.642;2023-05-10T08:56:56;14.00;99.90
15949;DHT22;14848;50.954;6.642;2023-05-10T08:59:22;13.70;99.90
15949;DHT22;14848;50.954;6.642;2023-05-10T09:01:49;13.60;99.90
15949;DHT22;14848;50.954;6.642;2023-05-10T09:04:15;13.70;99.90
15949;DHT22;14848;50.954;6.642;2023-05-10T09:06:41;13.90;99.90
15949;DHT22;14848;50.954;6.642;2023-05-10T09:09:07;14.20;99.90
15949;DHT22;14848;50.954;6.642;2023-05-10T09:11:32;14.40;99.90
15949;DHT22;14848;50.954;6.642;2023-05-10T09:13:58;14.40;99.90
15949;DHT22;14848;50.954;6.642;2023-05-10T09:16:24;14.40;99.90
15949;DHT22;14848;50.954;6.642;2023-05-10T09:18:50;14.50;99.90
15949;DHT22;14848;50.954;6.642;2023-05-10T09:21:16;14.40;99.90
15949;DHT22;14848;50.954;6.642;2023-05-10T09:23:45;14.50;99.90
15949;DHT22;14848;50.954;6.642;2023-05-10T09:26:12;14.50;99.90
15949;DHT22;14848;50.954;6.642;2023-05-10T09:28:55;14.70;99.90
15949;DHT22;14848;50.954;6.642;2023-05-10T09:31:21;14.90;99.90
15949;DHT22;14848;50.954;6.642;2023-05-10T09:33:49;15.00;99.90
15949;DHT22;14848;50.954;6.642;2023-05-10T09:36:15;15.00;99.90
15949;DHT22;14848;50.954;6.642;2023-05-10T09:38:52;15.00;99.90
15949;DHT22;14848;50.954;6.642;2023-05-10T09:41:21;15.00;99.90
15949;DHT22;14848;50.954;6.642;2023-05-10T09:43:47;15.00;99.90
15949;DHT22;14848;50.954;6.642;2023-05-10T09:46:14;15.00;99.90
15949;DHT22;14848;50.954;6.642;2023-05-10T09:48:45;15.00;99.90
15949;DHT22;14848;50.954;6.642;2023-05-10T09:51:22;15.30;99.90
15949;DHT22;14848;50.954;6.642;2023-05-10T09:53:49;15.40;99.90
15949;DHT22;14848;50.954;6.642;2023-05-10T09:56:35;15.50;99.90
15949;DHT22;14848;50.954;6.642;2023-05-10T09:59:04;15.70;99.90
15949;DHT22;14848;50.954;6.642;2023-05-10T10:01:30;16.00;99.90
15949;DHT22;14848;50.954;6.642;2023-05-10T10:03:56;16.10;99.90
15949;DHT22;14848;50.954;6.642;2023-05-10T10:06:23;15.90;99.90
15949;DHT22;14848;50.954;6.642;2023-05-10T10:08:50;16.20;99.90
15949;DHT22;14848;50.954;6.642;2023-05-10T10:11:16;16.00;99.90
15949;DHT22;14848;50.954;6.642;2023-05-10T10:13:42;16.00;99.90
15949;DHT22;14848;50.954;6.642;2023-05-10T10:16:09;16.00;99.90
15949;DHT22;14848;50.954;6.642;2023-05-10T10:18:36;15.90;99.90
15949;DHT22;14848;50.954;6.642;2023-05-10T10:21:08;16.00;99.90
15949;DHT22;14848;50.954;6.642;2023-05-10T10:23:37;15.80;99.90
15949;DHT22;14848;50.954;6.642;2023-05-10T10:26:03;15.40;99.90
15949;DHT22;14848;50.954;6.642;2023-05-10T10:31:35;15.10;99.90
15949;DHT22;14848;50.954;6.642;2023-05-10T10:34:11;14.90;99.90
15949;DHT22;14848;50.954;6.642;2023-05-10T10:36:46;14.80;99.90
15949;DHT22;14848;50.954;6.642;2023-05-10T10:39:12;15.00;99.90
15949;DHT22;14848;50.954;6.642;2023-05-10T10:41:50;15.20;99.90
15949;DHT22;14848;50.954;6.642;2023-05-10T10:47:06;15.70;99.90
15949;DHT22;14848;50.954;6.642;2023-05-10T10:49:48;15.90;99.90
15949;DHT22;14848;50.954;6.642;2023-05-10T10:54:53;16.40;99.90
15949;DHT22;14848;50.954;6.642;2023-05-10T10:57:22;16.50;99.90
15949;DHT22;14848;50.954;6.642;2023-05-10T10:59:48;16.60;99.90
15949;DHT22;14848;50.954;6.642;2023-05-10T11:07:59;16.40;99.90
15949;DHT22;14848;50.954;6.642;2023-05-10T11:10:26;16.60;99.90
15949;DHT22;14848;50.954;6.642;2023-05-10T11:13:03;16.50;99.90
15949;DHT22;14848;50.954;6.642;2023-05-10T11:15:34;16.50;99.90
15949;DHT22;14848;50.954;6.642;2023-05-10T11:18:35;16.60;99.90
15949;DHT22;14848;50.954;6.642;2023-05-10T11:40:46;16.60;99.90
15949;DHT22;14848;50.954;6.642;2023-05-10T11:43:12;16.80;99.90
15949;DHT22;14848;50.954;6.642;2023-05-10T11:48:05;16.80;99.90
15949;DHT22;14848;50.954;6.642;2023-05-10T11:50:30;16.90;99.90
15949;DHT22;14848;50.954;6.642;2023-05-10T11:52:57;16.80;99.90
15949;DHT22;14848;50.954;6.642;2023-05-10T11:55:24;16.80;99.90
15949;DHT22;14848;50.954;6.642;2023-05-10T11:57:53;17.00;99.90
15949;DHT22;14848;50.954;6.642;2023-05-10T12:07:40;17.60;99.90
15949;DHT22;14848;50.954;6.642;2023-05-10T12:10:08;17.10;99.90
15949;DHT22;14848;50.954;6.642;2023-05-10T12:20:16;17.50;99.90
15949;DHT22;14848;50.954;6.642;2023-05-10T12:23:00;17.70;99.90
15949;DHT22;14848;50.954;6.642;2023-05-10T12:25:36;17.90;99.90
15949;DHT22;14848;50.954;6.642;2023-05-10T12:28:07;18.10;99.90
15949;DHT22;14848;50.954;6.642;2023-05-10T12:30:34;18.00;99.90
15949;DHT22;14848;50.954;6.642;2023-05-10T12:35:51;18.20;99.90
15949;DHT22;14848;50.954;6.642;2023-05-10T12:38:46;18.10;99.90
15949;DHT22;14848;50.954;6.642;2023-05-10T12:41:17;17.90;99.90
15949;DHT22;14848;50.954;6.642;2023-05-10T12:43:43;17.90;99.90
15949;DHT22;14848;50.954;6.642;2023-05-10T12:46:12;17.90;99.90
15949;DHT22;14848;50.954;6.642;2023-05-10T12:48:40;17.90;99.90
15949;DHT22;14848;50.954;6.642;2023-05-10T12:51:07;17.90;99.90
15949;DHT22;14848;50.954;6.642;2023-05-10T12:53:38;18.00;99.90
15949;DHT22;14848;50.954;6.642;2023-05-10T12:56:04;18.20;99.90
15949;DHT22;14848;50.954;6.642;2023-05-10T12:58:30;18.40;99.90
15949;DHT22;14848;50.954;6.642;2023-05-10T13:00:57;18.30;99.90
15949;DHT22;14848;50.954;6.642;2023-05-10T13:03:23;18.40;99.90
15949;DHT22;14848;50.954;6.642;2023-05-10T13:05:48;18.40;99.90
15949;DHT22;14848;50.954;6.642;2023-05-10T13:08:14;18.50;99.90
15949;DHT22;14848;50.954;6.642;2023-05-10T13:10:40;18.40;99.90
15949;DHT22;14848;50.954;6.642;2023-05-10T13:13:06;18.60;99.90
15949;DHT22;14848;50.954;6.642;2023-05-10T13:15:32;18.50;99.90
15949;DHT22;14848;50.954;6.642;2023-05-10T13:17:58;18.50;99.90
15949;DHT22;14848;50.954;6.642;2023-05-10T13:20:25;18.50;99.90
15949;DHT22;14848;50.954;6.642;2023-05-10T13:22:51;18.30;99.90
15949;DHT22;14848;50.954;6.642;2023-05-10T13:25:16;18.30;99.90
15949;DHT22;14848;50.954;6.642;2023-05-10T13:27:42;18.40;99.90
15949;DHT22;14848;50.954;6.642;2023-05-10T13:30:09;18.30;99.90
15949;DHT22;14848;50.954;6.642;2023-05-10T13:32:35;18.10;99.90
15949;DHT22;14848;50.954;6.642;2023-05-10T13:35:01;18.10;99.90
15949;DHT22;14848;50.954;6.642;2023-05-10T13:37:29;18.10;99.90
15949;DHT22;14848;50.954;6.642;2023-05-10T13:39:55;18.20;99.90
15949;DHT22;14848;50.954;6.642;2023-05-10T13:42:22;18.40;99.90
15949;DHT22;14848;50.954;6.642;2023-05-10T13:44:48;18.40;99.90
15949;DHT22;14848;50.954;6.642;2023-05-10T13:47:14;18.20;99.90
15949;DHT22;14848;50.954;6.642;2023-05-10T13:49:39;18.20;99.90
15949;DHT22;14848;50.954;6.642;2023-05-10T13:52:05;18.10;99.90
15949;DHT22;14848;50.954;6.642;2023-05-10T13:54:38;18.10;99.90
15949;DHT22;14848;50.954;6.642;2023-05-10T13:57:04;18.10;99.90
15949;DHT22;14848;50.954;6.642;2023-05-10T13:59:30;18.10;99.90
15949;DHT22;14848;50.954;6.642;2023-05-10T14:01:57;17.90;99.90
15949;DHT22;14848;50.954;6.642;2023-05-10T14:04:23;18.00;99.90
15949;DHT22;14848;50.954;6.642;2023-05-10T14:06:49;18.20;99.90
15949;DHT22;14848;50.954;6.642;2023-05-10T14:09:14;18.30;99.90
15949;DHT22;14848;50.954;6.642;2023-05-10T14:11:41;18.30;99.90
15949;DHT22;14848;50.954;6.642;2023-05-10T14:14:09;18.20;99.90
15949;DHT22;14848;50.954;6.642;2023-05-10T14:16:34;18.40;99.90
15949;DHT22;14848;50.954;6.642;2023-05-10T14:19:00;18.40;99.90
15949;DHT22;14848;50.954;6.642;2023-05-10T14:21:27;18.40;99.90
15949;DHT22;14848;50.954;6.642;2023-05-10T14:23:54;18.10;99.90
15949;DHT22;14848;50.954;6.642;2023-05-10T14:26:21;18.00;99.90
15949;DHT22;14848;50.954;6.642;2023-05-10T14:28:47;17.80;99.90
15949;DHT22;14848;50.954;6.642;2023-05-10T14:31:12;17.60;99.90
15949;DHT22;14848;50.954;6.642;2023-05-10T14:33:39;17.60;99.90
15949;DHT22;14848;50.954;6.642;2023-05-10T14:36:05;17.70;99.90
15949;DHT22;14848;50.954;6.642;2023-05-10T14:38:31;17.80;99.90
15949;DHT22;14848;50.954;6.642;2023-05-10T14:40:57;17.90;99.90
15949;DHT22;14848;50.954;6.642;2023-05-10T14:43:23;18.20;99.90
15949;DHT22;14848;50.954;6.642;2023-05-10T14:45:48;18.10;99.90
15949;DHT22;14848;50.954;6.642;2023-05-10T14:48:14;18.10;99.90
15949;DHT22;14848;50.954;6.642;2023-05-10T14:50:43;17.90;99.90
15949;DHT22;14848;50.954;6.642;2023-05-10T14:53:08;18.00;99.90
15949;DHT22;14848;50.954;6.642;2023-05-10T14:55:34;18.20;99.90
15949;DHT22;14848;50.954;6.642;2023-05-10T14:58:01;18.20;99.90
15949;DHT22;14848;50.954;6.642;2023-05-10T15:00:28;18.10;99.90
15949;DHT22;14848;50.954;6.642;2023-05-10T15:02:54;18.00;99.90
15949;DHT22;14848;50.954;6.642;2023-05-10T15:05:20;17.80;99.90
15949;DHT22;14848;50.954;6.642;2023-05-10T15:07:45;17.90;99.90
15949;DHT22;14848;50.954;6.642;2023-05-10T15:10:11;17.80;99.90
15949;DHT22;14848;50.954;6.642;2023-05-10T15:12:37;17.80;99.90
15949;DHT22;14848;50.954;6.642;2023-05-10T15:15:04;17.80;99.90
15949;DHT22;14848;50.954;6.642;2023-05-10T15:17:30;17.80;99.90
15949;DHT22;14848;50.954;6.642;2023-05-10T15:19:56;17.80;99.90
15949;DHT22;14848;50.954;6.642;2023-05-10T15:22:21;17.90;99.90
15949;DHT22;14848;50.954;6.642;2023-05-10T15:24:47;17.80;99.90
15949;DHT22;14848;50.954;6.642;2023-05-10T15:27:13;17.70;99.90
15949;DHT22;14848;50.954;6.642;2023-05-10T15:29:39;17.60;99.90
15949;DHT22;14848;50.954;6.642;2023-05-10T15:32:04;17.50;99.90
15949;DHT22;14848;50.954;6.642;2023-05-10T15:34:30;17.50;99.90
15949;DHT22;14848;50.954;6.642;2023-05-10T15:36:55;17.50;99.90
15949;DHT22;14848;50.954;6.642;2023-05-10T15:39:21;17.50;99.90
15949;DHT22;14848;50.954;6.642;2023-05-10T15:41:47;17.60;99.90
15949;DHT22;14848;50.954;6.642;2023-05-10T15:44:13;17.60;99.90
15949;DHT22;14848;50.954;6.642;2023-05-10T15:46:38;17.70;99.90
15949;DHT22;14848;50.954;6.642;2023-05-10T15:49:04;17.80;99.90
15949;DHT22;14848;50.954;6.642;2023-05-10T15:51:31;17.90;99.90
15949;DHT22;14848;50.954;6.642;2023-05-10T15:53:58;17.90;99.90
15949;DHT22;14848;50.954;6.642;2023-05-10T15:56:23;18.00;99.90
15949;DHT22;14848;50.954;6.642;2023-05-10T15:58:49;18.00;99.90
15949;DHT22;14848;50.954;6.642;2023-05-10T16:01:15;18.00;99.90
15949;DHT22;14848;50.954;6.642;2023-05-10T16:03:41;17.90;99.90
15949;DHT22;14848;50.954;6.642;2023-05-10T16:06:07;17.80;99.90
15949;DHT22;14848;50.954;6.642;2023-05-10T16:08:33;17.70;99.90
15949;DHT22;14848;50.954;6.642;2023-05-10T16:10:59;17.70;99.90
15949;DHT22;14848;50.954;6.642;2023-05-10T16:13:25;17.40;99.90
15949;DHT22;14848;50.954;6.642;2023-05-10T16:15:51;17.40;99.90
15949;DHT22;14848;50.954;6.642;2023-05-10T16:18:16;17.40;99.90
15949;DHT22;14848;50.954;6.642;2023-05-10T16:20:43;17.40;99.90
15949;DHT22;14848;50.954;6.642;2023-05-10T16:23:09;17.40;99.90
15949;DHT22;14848;50.954;6.642;2023-05-10T16:25:35;17.40;99.90
15949;DHT22;14848;50.954;6.642;2023-05-10T16:28:01;17.30;99.90
15949;DHT22;14848;50.954;6.642;2023-05-10T16:30:27;17.20;99.90
15949;DHT22;14848;50.954;6.642;2023-05-10T16:32:55;17.20;99.90
15949;DHT22;14848;50.954;6.642;2023-05-10T16:35:21;17.20;99.90
15949;DHT22;14848;50.954;6.642;2023-05-10T16:37:51;17.30;99.90
15949;DHT22;14848;50.954;6.642;2023-05-10T16:40:17;17.20;99.90